Etusivu
METAR-TAF:

METAR-TAF

Lentoasemat :

Los Angeles, Kalifornia, Yhdysvallat

Los Angelesin kansainvälinen lentoasema

Leveyspiiri: 33-56-17N, Pituuspiiri: 118-23-20W, korkeus merenpinnasta: 38 m

Tämänhetkinen sää

Tämä raportti tehtiin 36 minuuttia sitten, kello 06.53 UTC
Tuuli 3 kn eri suunnista
Lämpötila 17°C
Kosteus 27%
Ilmanpaine 1017 hPa
Näkyvyys: 16.1 km
selkeää

METAR: KLAX 130653Z VRB03KT 10SM CLR 17/M02 A3004 RMK AO2 SLP167 T01671022

Aika: 23:29 (07:29 UTC)

Sääennuste

Tämä raportti tehtiin 1 tunti ja 48 minuuttia sitten, kello 05.41 UTC
Ennuste voimassa 13. päivästä klo 06 UTC - 14. päivään klo 12 UTC
Tuuli 3 kn eri suunnista
Näkyvyys: 9.7 km
selkeää
savua
From 13. päivästä klo 2000 UTC
Tuuli 10 kn lännestä
Näkyvyys: 10 km
selkeää
From 14. päivästä klo 0300 UTC
Tuuli 3 kn eri suunnista
Näkyvyys: 9.7 km
selkeää
savua

TAF: KLAX 130541Z 1306/1412 VRB03KT 6SM FU SKC FM132000 26010KT P6SM SKC FM140300 VRB03KT 6SM FU SKC

Säähavainnot ja -ennusteet yli 4000 lentoasemalta (METAR- ja TAF-raportit).

Käytössä olevat sääasemat on merkitty karttaan keltaisilla ja punaisilla pisteillä.

Aseta hiiri pisteen päälle nähdäksesi sääaseman nimen.

Klikkaa sitten nähdäksesi säähavainnot ja -ennusteet.

Kartan vaihtaminen: klikkaa mustalla rastilla varustettuja vihreitä pisteitä, niin voit zoomata sisään; viivalla varustettua vihreää pistettä, niin voit zoomata ulos tai vihreitä nuolia, niin pääset viereisille kartoille.


METAR-TAF: